sensor_id;sensor_type;location;lat;lon;timestamp;temperature;humidity
19363;DHT22;9817;50.80926400;5.16316200;2023-06-10T00:01:54;23.30;94.30
19363;DHT22;9817;50.80926400;5.16316200;2023-06-10T00:04:23;23.30;94.30
19363;DHT22;9817;50.80926400;5.16316200;2023-06-10T00:06:50;23.40;94.40
19363;DHT22;9817;50.80926400;5.16316200;2023-06-10T00:09:15;23.50;94.30
19363;DHT22;9817;50.80926400;5.16316200;2023-06-10T00:11:42;23.50;94.40
19363;DHT22;9817;50.80926400;5.16316200;2023-06-10T00:14:08;23.50;94.50
19363;DHT22;9817;50.80926400;5.16316200;2023-06-10T00:16:34;23.50;94.70
19363;DHT22;9817;50.80926400;5.16316200;2023-06-10T00:19:00;23.50;94.80
19363;DHT22;9817;50.80926400;5.16316200;2023-06-10T00:21:30;23.50;95.10
19363;DHT22;9817;50.80926400;5.16316200;2023-06-10T00:23:56;23.40;95.40
19363;DHT22;9817;50.80926400;5.16316200;2023-06-10T00:26:24;23.30;95.90
19363;DHT22;9817;50.80926400;5.16316200;2023-06-10T00:28:51;23.30;96.20
19363;DHT22;9817;50.80926400;5.16316200;2023-06-10T00:31:17;23.20;96.60
19363;DHT22;9817;50.80926400;5.16316200;2023-06-10T00:33:43;23.20;97.00
19363;DHT22;9817;50.80926400;5.16316200;2023-06-10T00:36:09;23.10;97.50
19363;DHT22;9817;50.80926400;5.16316200;2023-06-10T00:38:34;23.10;98.20
19363;DHT22;9817;50.80926400;5.16316200;2023-06-10T00:41:00;23.10;98.40
19363;DHT22;9817;50.80926400;5.16316200;2023-06-10T00:43:26;23.00;98.40
19363;DHT22;9817;50.80926400;5.16316200;2023-06-10T00:45:51;22.90;98.60
19363;DHT22;9817;50.80926400;5.16316200;2023-06-10T00:48:18;22.90;99.00
19363;DHT22;9817;50.80926400;5.16316200;2023-06-10T00:50:45;22.90;99.40
19363;DHT22;9817;50.80926400;5.16316200;2023-06-10T00:53:12;22.90;99.90
19363;DHT22;9817;50.80926400;5.16316200;2023-06-10T00:55:38;22.80;99.90
19363;DHT22;9817;50.80926400;5.16316200;2023-06-10T00:58:04;22.80;99.90
19363;DHT22;9817;50.80926400;5.16316200;2023-06-10T01:00:29;22.70;99.90
19363;DHT22;9817;50.80926400;5.16316200;2023-06-10T01:02:55;22.70;99.90
19363;DHT22;9817;50.80926400;5.16316200;2023-06-10T01:05:21;22.70;99.90
19363;DHT22;9817;50.80926400;5.16316200;2023-06-10T01:08:07;22.70;99.90
19363;DHT22;9817;50.80926400;5.16316200;2023-06-10T01:10:37;22.60;99.90
19363;DHT22;9817;50.80926400;5.16316200;2023-06-10T01:13:09;22.50;99.90
19363;DHT22;9817;50.80926400;5.16316200;2023-06-10T01:15:37;22.50;99.90
19363;DHT22;9817;50.80926400;5.16316200;2023-06-10T01:18:05;22.50;99.90
19363;DHT22;9817;50.80926400;5.16316200;2023-06-10T01:20:35;22.50;99.90
19363;DHT22;9817;50.80926400;5.16316200;2023-06-10T01:23:03;22.40;99.90
19363;DHT22;9817;50.80926400;5.16316200;2023-06-10T01:25:30;22.50;99.90
19363;DHT22;9817;50.80926400;5.16316200;2023-06-10T01:28:14;22.40;99.90
19363;DHT22;9817;50.80926400;5.16316200;2023-06-10T01:30:58;22.30;99.90
19363;DHT22;9817;50.80926400;5.16316200;2023-06-10T01:33:28;22.20;99.90
19363;DHT22;9817;50.80926400;5.16316200;2023-06-10T01:35:57;22.20;99.90
19363;DHT22;9817;50.80926400;5.16316200;2023-06-10T01:38:26;22.00;99.90
19363;DHT22;9817;50.80926400;5.16316200;2023-06-10T01:40:53;22.00;99.90
19363;DHT22;9817;50.80926400;5.16316200;2023-06-10T01:43:20;22.00;99.90
19363;DHT22;9817;50.80926400;5.16316200;2023-06-10T01:45:46;22.10;99.90
19363;DHT22;9817;50.80926400;5.16316200;2023-06-10T01:48:12;21.90;99.90
19363;DHT22;9817;50.80926400;5.16316200;2023-06-10T01:50:38;21.90;99.90
19363;DHT22;9817;50.80926400;5.16316200;2023-06-10T01:53:04;21.80;99.90
19363;DHT22;9817;50.80926400;5.16316200;2023-06-10T01:55:30;21.80;99.90
19363;DHT22;9817;50.80926400;5.16316200;2023-06-10T01:57:56;21.70;99.90
19363;DHT22;9817;50.80926400;5.16316200;2023-06-10T02:00:22;21.60;99.90
19363;DHT22;9817;50.80926400;5.16316200;2023-06-10T02:02:47;21.70;99.90
19363;DHT22;9817;50.80926400;5.16316200;2023-06-10T02:05:13;21.60;99.90
19363;DHT22;9817;50.80926400;5.16316200;2023-06-10T02:07:39;21.70;99.90
19363;DHT22;9817;50.80926400;5.16316200;2023-06-10T02:10:05;21.70;99.90
19363;DHT22;9817;50.80926400;5.16316200;2023-06-10T02:12:31;21.60;99.90
19363;DHT22;9817;50.80926400;5.16316200;2023-06-10T02:14:57;21.50;99.90
19363;DHT22;9817;50.80926400;5.16316200;2023-06-10T02:17:22;21.50;99.90
19363;DHT22;9817;50.80926400;5.16316200;2023-06-10T02:19:48;21.50;99.90
19363;DHT22;9817;50.80926400;5.16316200;2023-06-10T02:22:21;21.50;99.90
19363;DHT22;9817;50.80926400;5.16316200;2023-06-10T02:24:47;21.50;99.90
19363;DHT22;9817;50.80926400;5.16316200;2023-06-10T02:27:15;21.50;99.90
19363;DHT22;9817;50.80926400;5.16316200;2023-06-10T02:29:41;21.50;99.90
19363;DHT22;9817;50.80926400;5.16316200;2023-06-10T02:32:07;21.40;99.90
19363;DHT22;9817;50.80926400;5.16316200;2023-06-10T02:34:33;21.40;99.90
19363;DHT22;9817;50.80926400;5.16316200;2023-06-10T02:36:59;21.50;99.90
19363;DHT22;9817;50.80926400;5.16316200;2023-06-10T02:39:24;21.50;99.90
19363;DHT22;9817;50.80926400;5.16316200;2023-06-10T02:41:50;21.50;99.90
19363;DHT22;9817;50.80926400;5.16316200;2023-06-10T02:44:17;21.50;99.90
19363;DHT22;9817;50.80926400;5.16316200;2023-06-10T02:46:43;21.50;99.90
19363;DHT22;9817;50.80926400;5.16316200;2023-06-10T02:49:09;21.50;99.90
19363;DHT22;9817;50.80926400;5.16316200;2023-06-10T02:51:34;21.50;99.90
19363;DHT22;9817;50.80926400;5.16316200;2023-06-10T02:54:01;21.50;99.90
19363;DHT22;9817;50.80926400;5.16316200;2023-06-10T02:56:26;21.50;99.90
19363;DHT22;9817;50.80926400;5.16316200;2023-06-10T02:58:52;21.40;99.90
19363;DHT22;9817;50.80926400;5.16316200;2023-06-10T03:01:18;21.40;99.90
19363;DHT22;9817;50.80926400;5.16316200;2023-06-10T03:03:44;21.40;99.90
19363;DHT22;9817;50.80926400;5.16316200;2023-06-10T03:06:12;21.40;99.90
19363;DHT22;9817;50.80926400;5.16316200;2023-06-10T03:08:38;21.30;99.90
19363;DHT22;9817;50.80926400;5.16316200;2023-06-10T03:11:04;21.20;99.90
19363;DHT22;9817;50.80926400;5.16316200;2023-06-10T03:13:30;21.20;99.90
19363;DHT22;9817;50.80926400;5.16316200;2023-06-10T03:15:56;21.20;99.90
19363;DHT22;9817;50.80926400;5.16316200;2023-06-10T03:18:25;21.20;99.90
19363;DHT22;9817;50.80926400;5.16316200;2023-06-10T03:20:51;21.20;99.90
19363;DHT22;9817;50.80926400;5.16316200;2023-06-10T03:23:17;21.10;99.90
19363;DHT22;9817;50.80926400;5.16316200;2023-06-10T03:25:44;21.00;99.90
19363;DHT22;9817;50.80926400;5.16316200;2023-06-10T03:28:10;21.00;99.90
19363;DHT22;9817;50.80926400;5.16316200;2023-06-10T03:30:35;20.90;99.90
19363;DHT22;9817;50.80926400;5.16316200;2023-06-10T03:33:01;20.90;99.90
19363;DHT22;9817;50.80926400;5.16316200;2023-06-10T03:35:27;20.90;99.90
19363;DHT22;9817;50.80926400;5.16316200;2023-06-10T03:37:52;20.80;99.90
19363;DHT22;9817;50.80926400;5.16316200;2023-06-10T03:40:18;20.80;99.90
19363;DHT22;9817;50.80926400;5.16316200;2023-06-10T03:42:44;20.80;99.90
19363;DHT22;9817;50.80926400;5.16316200;2023-06-10T03:45:10;20.80;99.90
19363;DHT22;9817;50.80926400;5.16316200;2023-06-10T03:47:36;20.80;99.90
19363;DHT22;9817;50.80926400;5.16316200;2023-06-10T03:50:06;20.70;99.90
19363;DHT22;9817;50.80926400;5.16316200;2023-06-10T03:52:32;20.70;99.90
19363;DHT22;9817;50.80926400;5.16316200;2023-06-10T03:54:57;20.70;99.90
19363;DHT22;9817;50.80926400;5.16316200;2023-06-10T03:57:23;20.60;99.90
19363;DHT22;9817;50.80926400;5.16316200;2023-06-10T03:59:49;20.60;99.90
19363;DHT22;9817;50.80926400;5.16316200;2023-06-10T04:02:14;20.60;99.90
19363;DHT22;9817;50.80926400;5.16316200;2023-06-10T04:04:40;20.60;99.90
19363;DHT22;9817;50.80926400;5.16316200;2023-06-10T04:07:06;20.70;99.90
19363;DHT22;9817;50.80926400;5.16316200;2023-06-10T04:09:33;20.70;99.90
19363;DHT22;9817;50.80926400;5.16316200;2023-06-10T04:11:59;20.70;99.90
19363;DHT22;9817;50.80926400;5.16316200;2023-06-10T04:14:24;20.70;99.90
19363;DHT22;9817;50.80926400;5.16316200;2023-06-10T04:16:50;20.70;99.90
19363;DHT22;9817;50.80926400;5.16316200;2023-06-10T04:19:16;20.80;99.90
19363;DHT22;9817;50.80926400;5.16316200;2023-06-10T04:21:44;20.80;99.90
19363;DHT22;9817;50.80926400;5.16316200;2023-06-10T04:24:11;20.90;99.90
19363;DHT22;9817;50.80926400;5.16316200;2023-06-10T04:26:37;20.90;99.90
19363;DHT22;9817;50.80926400;5.16316200;2023-06-10T04:29:04;20.90;99.90
19363;DHT22;9817;50.80926400;5.16316200;2023-06-10T04:31:30;21.00;99.90
19363;DHT22;9817;50.80926400;5.16316200;2023-06-10T04:33:57;21.00;99.90
19363;DHT22;9817;50.80926400;5.16316200;2023-06-10T04:36:23;21.10;99.90
19363;DHT22;9817;50.80926400;5.16316200;2023-06-10T04:38:49;21.10;99.90
19363;DHT22;9817;50.80926400;5.16316200;2023-06-10T04:41:17;21.10;99.90
19363;DHT22;9817;50.80926400;5.16316200;2023-06-10T04:43:43;21.20;99.90
19363;DHT22;9817;50.80926400;5.16316200;2023-06-10T04:46:08;21.20;99.90
19363;DHT22;9817;50.80926400;5.16316200;2023-06-10T04:48:35;21.30;99.90
19363;DHT22;9817;50.80926400;5.16316200;2023-06-10T04:51:01;21.20;99.90
19363;DHT22;9817;50.80926400;5.16316200;2023-06-10T04:53:26;21.20;99.90
19363;DHT22;9817;50.80926400;5.16316200;2023-06-10T04:55:54;21.30;99.90
19363;DHT22;9817;50.80926400;5.16316200;2023-06-10T04:58:20;21.30;99.90
19363;DHT22;9817;50.80926400;5.16316200;2023-06-10T05:00:48;21.20;99.90
19363;DHT22;9817;50.80926400;5.16316200;2023-06-10T05:03:13;21.30;99.90
19363;DHT22;9817;50.80926400;5.16316200;2023-06-10T05:05:39;21.40;99.90
19363;DHT22;9817;50.80926400;5.16316200;2023-06-10T05:08:06;21.40;99.90
19363;DHT22;9817;50.80926400;5.16316200;2023-06-10T05:10:34;21.50;99.90
19363;DHT22;9817;50.80926400;5.16316200;2023-06-10T05:13:01;21.60;99.90
19363;DHT22;9817;50.80926400;5.16316200;2023-06-10T05:15:26;21.60;99.90
19363;DHT22;9817;50.80926400;5.16316200;2023-06-10T05:17:52;21.50;99.90
19363;DHT22;9817;50.80926400;5.16316200;2023-06-10T05:20:18;21.50;99.90
19363;DHT22;9817;50.80926400;5.16316200;2023-06-10T05:22:44;21.50;99.90
19363;DHT22;9817;50.80926400;5.16316200;2023-06-10T05:25:12;21.40;99.90
19363;DHT22;9817;50.80926400;5.16316200;2023-06-10T05:27:38;21.50;99.90
19363;DHT22;9817;50.80926400;5.16316200;2023-06-10T05:30:06;21.50;99.90
19363;DHT22;9817;50.80926400;5.16316200;2023-06-10T05:32:33;21.50;99.90
19363;DHT22;9817;50.80926400;5.16316200;2023-06-10T05:34:58;21.70;99.90
19363;DHT22;9817;50.80926400;5.16316200;2023-06-10T05:37:25;21.70;99.90
19363;DHT22;9817;50.80926400;5.16316200;2023-06-10T05:39:51;21.70;99.90
19363;DHT22;9817;50.80926400;5.16316200;2023-06-10T05:42:19;21.80;99.90
19363;DHT22;9817;50.80926400;5.16316200;2023-06-10T05:44:45;22.00;99.90
19363;DHT22;9817;50.80926400;5.16316200;2023-06-10T05:47:12;22.20;99.90
19363;DHT22;9817;50.80926400;5.16316200;2023-06-10T05:49:38;22.40;99.90
19363;DHT22;9817;50.80926400;5.16316200;2023-06-10T05:52:06;22.40;99.90
19363;DHT22;9817;50.80926400;5.16316200;2023-06-10T05:54:33;22.50;99.90
19363;DHT22;9817;50.80926400;5.16316200;2023-06-10T05:57:01;22.80;99.90
19363;DHT22;9817;50.80926400;5.16316200;2023-06-10T05:59:29;24.00;99.90
19363;DHT22;9817;50.80926400;5.16316200;2023-06-10T06:01:57;26.00;99.90
19363;DHT22;9817;50.80926400;5.16316200;2023-06-10T06:04:24;28.50;99.90
19363;DHT22;9817;50.80926400;5.16316200;2023-06-10T06:06:51;29.60;98.50
19363;DHT22;9817;50.80926400;5.16316200;2023-06-10T06:09:18;29.40;97.90
19363;DHT22;9817;50.80926400;5.16316200;2023-06-10T06:11:45;28.70;98.00
19363;DHT22;9817;50.80926400;5.16316200;2023-06-10T06:14:13;28.90;98.50
19363;DHT22;9817;50.80926400;5.16316200;2023-06-10T06:16:38;30.90;96.20
19363;DHT22;9817;50.80926400;5.16316200;2023-06-10T06:19:05;32.30;91.70
19363;DHT22;9817;50.80926400;5.16316200;2023-06-10T06:21:31;32.10;90.00
19363;DHT22;9817;50.80926400;5.16316200;2023-06-10T06:23:56;30.70;91.00
19363;DHT22;9817;50.80926400;5.16316200;2023-06-10T06:26:24;30.30;92.40
19363;DHT22;9817;50.80926400;5.16316200;2023-06-10T06:28:50;30.20;93.30
19363;DHT22;9817;50.80926400;5.16316200;2023-06-10T06:31:18;30.60;93.20
19363;DHT22;9817;50.80926400;5.16316200;2023-06-10T06:33:46;32.50;91.20
19363;DHT22;9817;50.80926400;5.16316200;2023-06-10T06:36:12;32.20;86.30
19363;DHT22;9817;50.80926400;5.16316200;2023-06-10T06:38:38;31.20;88.00
19363;DHT22;9817;50.80926400;5.16316200;2023-06-10T06:41:04;30.50;90.40
19363;DHT22;9817;50.80926400;5.16316200;2023-06-10T06:43:32;29.70;91.50
19363;DHT22;9817;50.80926400;5.16316200;2023-06-10T06:46:00;29.10;92.60
19363;DHT22;9817;50.80926400;5.16316200;2023-06-10T06:48:28;28.70;93.20
19363;DHT22;9817;50.80926400;5.16316200;2023-06-10T06:50:55;28.40;94.00
19363;DHT22;9817;50.80926400;5.16316200;2023-06-10T06:53:23;27.80;95.20
19363;DHT22;9817;50.80926400;5.16316200;2023-06-10T06:55:50;27.20;95.70
19363;DHT22;9817;50.80926400;5.16316200;2023-06-10T06:58:16;27.00;96.20
19363;DHT22;9817;50.80926400;5.16316200;2023-06-10T07:00:42;26.80;96.20
19363;DHT22;9817;50.80926400;5.16316200;2023-06-10T07:03:09;26.70;97.50
19363;DHT22;9817;50.80926400;5.16316200;2023-06-10T07:05:36;26.40;98.10
19363;DHT22;9817;50.80926400;5.16316200;2023-06-10T07:08:04;26.30;98.50
19363;DHT22;9817;50.80926400;5.16316200;2023-06-10T07:10:30;26.50;98.60
19363;DHT22;9817;50.80926400;5.16316200;2023-06-10T07:12:56;27.80;97.80
19363;DHT22;9817;50.80926400;5.16316200;2023-06-10T07:15:23;29.10;95.80
19363;DHT22;9817;50.80926400;5.16316200;2023-06-10T07:17:51;29.10;93.80
19363;DHT22;9817;50.80926400;5.16316200;2023-06-10T07:20:17;28.80;94.60
19363;DHT22;9817;50.80926400;5.16316200;2023-06-10T07:22:45;28.80;94.90
19363;DHT22;9817;50.80926400;5.16316200;2023-06-10T07:25:13;29.20;94.80
19363;DHT22;9817;50.80926400;5.16316200;2023-06-10T07:27:41;29.60;94.80
19363;DHT22;9817;50.80926400;5.16316200;2023-06-10T07:30:07;30.70;92.80
19363;DHT22;9817;50.80926400;5.16316200;2023-06-10T07:32:34;32.90;88.80
19363;DHT22;9817;50.80926400;5.16316200;2023-06-10T07:34:59;35.60;81.20
19363;DHT22;9817;50.80926400;5.16316200;2023-06-10T07:37:26;38.10;73.10
19363;DHT22;9817;50.80926400;5.16316200;2023-06-10T07:39:52;40.50;64.40
19363;DHT22;9817;50.80926400;5.16316200;2023-06-10T07:42:18;42.60;59.60
19363;DHT22;9817;50.80926400;5.16316200;2023-06-10T07:44:46;43.80;55.50
19363;DHT22;9817;50.80926400;5.16316200;2023-06-10T07:47:12;44.70;52.20
19363;DHT22;9817;50.80926400;5.16316200;2023-06-10T07:49:39;44.40;50.80
19363;DHT22;9817;50.80926400;5.16316200;2023-06-10T07:52:06;45.70;49.10
19363;DHT22;9817;50.80926400;5.16316200;2023-06-10T07:54:34;46.80;47.80
19363;DHT22;9817;50.80926400;5.16316200;2023-06-10T07:57:02;47.40;46.10
19363;DHT22;9817;50.80926400;5.16316200;2023-06-10T07:59:28;48.10;45.20
19363;DHT22;9817;50.80926400;5.16316200;2023-06-10T08:01:56;48.70;44.20
19363;DHT22;9817;50.80926400;5.16316200;2023-06-10T08:04:23;49.40;43.30
19363;DHT22;9817;50.80926400;5.16316200;2023-06-10T08:06:51;50.10;43.20
19363;DHT22;9817;50.80926400;5.16316200;2023-06-10T08:09:19;50.50;41.60
19363;DHT22;9817;50.80926400;5.16316200;2023-06-10T08:11:46;50.70;40.80
19363;DHT22;9817;50.80926400;5.16316200;2023-06-10T08:14:15;50.90;40.50
19363;DHT22;9817;50.80926400;5.16316200;2023-06-10T08:16:43;51.00;41.00
19363;DHT22;9817;50.80926400;5.16316200;2023-06-10T08:19:11;50.90;39.90
19363;DHT22;9817;50.80926400;5.16316200;2023-06-10T08:21:36;50.90;39.80
19363;DHT22;9817;50.80926400;5.16316200;2023-06-10T08:24:08;50.40;39.60
19363;DHT22;9817;50.80926400;5.16316200;2023-06-10T08:26:35;50.40;40.40
19363;DHT22;9817;50.80926400;5.16316200;2023-06-10T08:29:03;50.60;40.70
19363;DHT22;9817;50.80926400;5.16316200;2023-06-10T08:31:29;50.30;39.60
19363;DHT22;9817;50.80926400;5.16316200;2023-06-10T08:33:57;49.10;39.70
19363;DHT22;9817;50.80926400;5.16316200;2023-06-10T08:36:25;49.20;40.70
19363;DHT22;9817;50.80926400;5.16316200;2023-06-10T08:38:52;49.80;40.00
19363;DHT22;9817;50.80926400;5.16316200;2023-06-10T08:41:18;50.30;40.00
19363;DHT22;9817;50.80926400;5.16316200;2023-06-10T08:43:51;50.00;39.40
19363;DHT22;9817;50.80926400;5.16316200;2023-06-10T08:46:21;50.10;39.00
19363;DHT22;9817;50.80926400;5.16316200;2023-06-10T08:48:49;49.50;39.80
19363;DHT22;9817;50.80926400;5.16316200;2023-06-10T08:51:22;49.40;39.10
19363;DHT22;9817;50.80926400;5.16316200;2023-06-10T08:54:02;50.00;38.70
19363;DHT22;9817;50.80926400;5.16316200;2023-06-10T08:56:33;50.70;38.50
19363;DHT22;9817;50.80926400;5.16316200;2023-06-10T08:59:02;50.20;38.40
19363;DHT22;9817;50.80926400;5.16316200;2023-06-10T09:01:29;49.60;38.50
19363;DHT22;9817;50.80926400;5.16316200;2023-06-10T09:03:59;49.70;38.20
19363;DHT22;9817;50.80926400;5.16316200;2023-06-10T09:06:25;49.30;38.70
19363;DHT22;9817;50.80926400;5.16316200;2023-06-10T09:08:53;49.30;38.70
19363;DHT22;9817;50.80926400;5.16316200;2023-06-10T09:11:21;50.00;39.60
19363;DHT22;9817;50.80926400;5.16316200;2023-06-10T09:13:47;50.10;38.20
19363;DHT22;9817;50.80926400;5.16316200;2023-06-10T09:16:14;50.20;37.90
19363;DHT22;9817;50.80926400;5.16316200;2023-06-10T09:18:42;50.40;37.70
19363;DHT22;9817;50.80926400;5.16316200;2023-06-10T09:21:09;50.30;38.50
19363;DHT22;9817;50.80926400;5.16316200;2023-06-10T09:23:37;50.60;37.50
19363;DHT22;9817;50.80926400;5.16316200;2023-06-10T09:26:09;50.10;38.10
19363;DHT22;9817;50.80926400;5.16316200;2023-06-10T09:28:36;50.40;38.60
19363;DHT22;9817;50.80926400;5.16316200;2023-06-10T09:31:05;50.70;37.60
19363;DHT22;9817;50.80926400;5.16316200;2023-06-10T09:33:37;50.20;38.10
19363;DHT22;9817;50.80926400;5.16316200;2023-06-10T09:36:05;49.40;38.90
19363;DHT22;9817;50.80926400;5.16316200;2023-06-10T09:38:35;48.90;38.70
19363;DHT22;9817;50.80926400;5.16316200;2023-06-10T09:41:03;48.20;39.50
19363;DHT22;9817;50.80926400;5.16316200;2023-06-10T09:43:41;48.50;38.60
19363;DHT22;9817;50.80926400;5.16316200;2023-06-10T09:46:19;48.10;37.80
19363;DHT22;9817;50.80926400;5.16316200;2023-06-10T09:48:47;48.10;38.70
19363;DHT22;9817;50.80926400;5.16316200;2023-06-10T09:51:14;48.70;39.40
19363;DHT22;9817;50.80926400;5.16316200;2023-06-10T09:53:51;49.10;38.70
19363;DHT22;9817;50.80926400;5.16316200;2023-06-10T09:56:17;49.20;38.20
19363;DHT22;9817;50.80926400;5.16316200;2023-06-10T09:58:44;48.50;37.70
19363;DHT22;9817;50.80926400;5.16316200;2023-06-10T10:01:13;48.20;38.30
19363;DHT22;9817;50.80926400;5.16316200;2023-06-10T10:03:50;48.60;38.80
19363;DHT22;9817;50.80926400;5.16316200;2023-06-10T10:06:17;48.80;38.40
19363;DHT22;9817;50.80926400;5.16316200;2023-06-10T10:08:44;47.40;37.20
19363;DHT22;9817;50.80926400;5.16316200;2023-06-10T10:11:11;47.40;37.50
19363;DHT22;9817;50.80926400;5.16316200;2023-06-10T10:13:39;46.50;38.50
19363;DHT22;9817;50.80926400;5.16316200;2023-06-10T10:16:12;45.50;40.30
19363;DHT22;9817;50.80926400;5.16316200;2023-06-10T10:18:43;45.20;40.40
19363;DHT22;9817;50.80926400;5.16316200;2023-06-10T10:21:15;44.90;40.70
19363;DHT22;9817;50.80926400;5.16316200;2023-06-10T10:26:10;43.80;39.50
19363;DHT22;9817;50.80926400;5.16316200;2023-06-10T10:28:44;42.40;40.40
19363;DHT22;9817;50.80926400;5.16316200;2023-06-10T10:31:13;41.80;40.30
19363;DHT22;9817;50.80926400;5.16316200;2023-06-10T10:36:10;40.50;43.10
19363;DHT22;9817;50.80926400;5.16316200;2023-06-10T10:38:36;39.40;43.50
19363;DHT22;9817;50.80926400;5.16316200;2023-06-10T10:41:03;38.80;45.10
19363;DHT22;9817;50.80926400;5.16316200;2023-06-10T10:43:31;38.20;45.80
19363;DHT22;9817;50.80926400;5.16316200;2023-06-10T10:46:12;38.10;47.50
19363;DHT22;9817;50.80926400;5.16316200;2023-06-10T10:48:38;37.70;46.70
19363;DHT22;9817;50.80926400;5.16316200;2023-06-10T10:51:06;37.40;47.00
19363;DHT22;9817;50.80926400;5.16316200;2023-06-10T10:53:32;37.60;47.90
19363;DHT22;9817;50.80926400;5.16316200;2023-06-10T10:56:07;37.60;48.20
19363;DHT22;9817;50.80926400;5.16316200;2023-06-10T10:58:35;37.30;46.50
19363;DHT22;9817;50.80926400;5.16316200;2023-06-10T11:01:12;36.60;47.50
19363;DHT22;9817;50.80926400;5.16316200;2023-06-10T11:03:44;36.10;46.10
19363;DHT22;9817;50.80926400;5.16316200;2023-06-10T11:06:17;35.40;46.70
19363;DHT22;9817;50.80926400;5.16316200;2023-06-10T11:11:24;35.10;48.50
19363;DHT22;9817;50.80926400;5.16316200;2023-06-10T11:14:04;35.40;50.20
19363;DHT22;9817;50.80926400;5.16316200;2023-06-10T11:16:42;35.50;49.20
19363;DHT22;9817;50.80926400;5.16316200;2023-06-10T11:19:09;35.00;49.00
19363;DHT22;9817;50.80926400;5.16316200;2023-06-10T11:21:59;34.80;47.40
19363;DHT22;9817;50.80926400;5.16316200;2023-06-10T11:24:26;34.50;46.30
19363;DHT22;9817;50.80926400;5.16316200;2023-06-10T11:26:52;34.10;48.00
19363;DHT22;9817;50.80926400;5.16316200;2023-06-10T11:29:18;34.10;49.00
19363;DHT22;9817;50.80926400;5.16316200;2023-06-10T11:31:49;34.30;49.30
19363;DHT22;9817;50.80926400;5.16316200;2023-06-10T11:34:20;34.60;49.10
19363;DHT22;9817;50.80926400;5.16316200;2023-06-10T11:36:49;34.80;49.10
19363;DHT22;9817;50.80926400;5.16316200;2023-06-10T11:39:15;34.60;47.30
19363;DHT22;9817;50.80926400;5.16316200;2023-06-10T11:41:43;34.00;47.60
19363;DHT22;9817;50.80926400;5.16316200;2023-06-10T11:44:12;34.00;48.00
19363;DHT22;9817;50.80926400;5.16316200;2023-06-10T11:46:41;34.00;48.50
19363;DHT22;9817;50.80926400;5.16316200;2023-06-10T11:49:12;34.20;47.00
19363;DHT22;9817;50.80926400;5.16316200;2023-06-10T11:51:39;34.20;47.70
19363;DHT22;9817;50.80926400;5.16316200;2023-06-10T11:54:08;34.30;49.00
19363;DHT22;9817;50.80926400;5.16316200;2023-06-10T11:56:36;34.30;49.50
19363;DHT22;9817;50.80926400;5.16316200;2023-06-10T11:59:04;34.40;48.20
19363;DHT22;9817;50.80926400;5.16316200;2023-06-10T12:01:34;34.30;48.00
19363;DHT22;9817;50.80926400;5.16316200;2023-06-10T12:04:09;34.10;47.10
19363;DHT22;9817;50.80926400;5.16316200;2023-06-10T12:09:27;33.90;46.90
19363;DHT22;9817;50.80926400;5.16316200;2023-06-10T12:12:00;33.90;47.60
19363;DHT22;9817;50.80926400;5.16316200;2023-06-10T12:19:58;34.10;49.20
19363;DHT22;9817;50.80926400;5.16316200;2023-06-10T12:22:24;33.90;49.50
19363;DHT22;9817;50.80926400;5.16316200;2023-06-10T12:25:03;34.00;49.90
19363;DHT22;9817;50.80926400;5.16316200;2023-06-10T12:27:30;33.70;48.80
19363;DHT22;9817;50.80926400;5.16316200;2023-06-10T12:30:00;33.70;50.30
19363;DHT22;9817;50.80926400;5.16316200;2023-06-10T12:32:48;33.90;50.80
19363;DHT22;9817;50.80926400;5.16316200;2023-06-10T12:35:18;34.10;49.00
19363;DHT22;9817;50.80926400;5.16316200;2023-06-10T12:38:11;34.10;49.40
19363;DHT22;9817;50.80926400;5.16316200;2023-06-10T12:40:39;33.80;48.60
19363;DHT22;9817;50.80926400;5.16316200;2023-06-10T12:43:07;33.50;48.10
19363;DHT22;9817;50.80926400;5.16316200;2023-06-10T12:45:36;33.40;49.40
19363;DHT22;9817;50.80926400;5.16316200;2023-06-10T12:50:47;33.60;47.60
19363;DHT22;9817;50.80926400;5.16316200;2023-06-10T12:53:12;33.80;49.30
19363;DHT22;9817;50.80926400;5.16316200;2023-06-10T12:55:38;33.60;49.20
19363;DHT22;9817;50.80926400;5.16316200;2023-06-10T12:58:05;33.60;50.40
19363;DHT22;9817;50.80926400;5.16316200;2023-06-10T13:00:32;33.80;49.60
19363;DHT22;9817;50.80926400;5.16316200;2023-06-10T13:03:01;33.80;49.90
19363;DHT22;9817;50.80926400;5.16316200;2023-06-10T13:05:28;33.70;48.30
19363;DHT22;9817;50.80926400;5.16316200;2023-06-10T13:07:56;33.50;48.40
19363;DHT22;9817;50.80926400;5.16316200;2023-06-10T13:10:22;33.30;49.20
19363;DHT22;9817;50.80926400;5.16316200;2023-06-10T13:12:48;33.40;47.70
19363;DHT22;9817;50.80926400;5.16316200;2023-06-10T13:15:15;33.50;47.20
19363;DHT22;9817;50.80926400;5.16316200;2023-06-10T13:17:42;33.40;47.10
19363;DHT22;9817;50.80926400;5.16316200;2023-06-10T13:20:08;33.60;47.10
19363;DHT22;9817;50.80926400;5.16316200;2023-06-10T13:22:36;33.70;47.40
19363;DHT22;9817;50.80926400;5.16316200;2023-06-10T13:25:03;33.70;46.40
19363;DHT22;9817;50.80926400;5.16316200;2023-06-10T13:27:30;33.80;47.10
19363;DHT22;9817;50.80926400;5.16316200;2023-06-10T13:29:56;33.90;47.50
19363;DHT22;9817;50.80926400;5.16316200;2023-06-10T13:32:22;33.90;46.70
19363;DHT22;9817;50.80926400;5.16316200;2023-06-10T13:34:47;34.00;47.60
19363;DHT22;9817;50.80926400;5.16316200;2023-06-10T13:37:15;33.80;47.40
19363;DHT22;9817;50.80926400;5.16316200;2023-06-10T13:39:43;33.70;47.20
19363;DHT22;9817;50.80926400;5.16316200;2023-06-10T13:42:09;33.50;47.10
19363;DHT22;9817;50.80926400;5.16316200;2023-06-10T13:44:35;33.70;47.70
19363;DHT22;9817;50.80926400;5.16316200;2023-06-10T13:47:02;33.70;49.00
19363;DHT22;9817;50.80926400;5.16316200;2023-06-10T13:49:29;33.70;49.90
19363;DHT22;9817;50.80926400;5.16316200;2023-06-10T13:51:57;33.40;49.20
19363;DHT22;9817;50.80926400;5.16316200;2023-06-10T13:54:25;33.70;49.50
19363;DHT22;9817;50.80926400;5.16316200;2023-06-10T13:56:53;33.80;49.50